Time;durP1;ratioP1;P1;durP2;ratioP2;P2;SDS_P1;SDS_P2;PMS_P1;PMS_P2;Temp;Humidity;BMP_temperature;BMP_pressure;BME280_temperature;BME280_humidity;BME280_pressure;Samples;Min_cycle;Max_cycle;Signal;HPM_P1;HPM_P2
2024/01/27 00:02:16;;;;;;;22.92;6.75;;;;;;;-145.48;100.00;64539.38;6253472;28;20407;-94
2024/01/27 00:05:17;;;;;;;6.90;6.60;;;;;;;-145.48;100.00;64539.38;6251780;28;20040;-93
2024/01/27 00:08:21;;;;;;;6.13;5.93;;;;;;;-145.48;100.00;64539.38;6254965;28;20045;-95
2024/01/27 00:11:25;;;;;;;17.30;6.53;;;;;;;-145.48;100.00;64539.38;6256120;28;20135;-94
2024/01/27 00:14:28;;;;;;;6.93;6.50;;;;;;;-145.48;100.00;64539.38;6260732;28;20044;-94
2024/01/27 00:17:30;;;;;;;6.70;6.30;;;;;;;-145.48;100.00;64539.38;6253658;28;20450;-93
2024/01/27 00:20:32;;;;;;;5.90;5.68;;;;;;;-145.48;100.00;64539.38;6246490;28;20116;-93
2024/01/27 00:23:34;;;;;;;6.45;6.15;;;;;;;-145.48;100.00;64539.38;6264071;28;20524;-94
2024/01/27 00:26:37;;;;;;;5.75;5.55;;;;;;;-145.48;100.00;64539.38;6252904;28;20426;-93
2024/01/27 00:29:39;;;;;;;8.05;7.25;;;;;;;-145.48;100.00;64539.38;6252925;28;20053;-93
2024/01/27 00:32:40;;;;;;;6.22;5.93;;;;;;;-145.48;100.00;64539.38;6251637;28;20053;-93
2024/01/27 00:35:43;;;;;;;5.68;5.47;;;;;;;-145.48;100.00;64539.38;6249040;28;20043;-93
2024/01/27 00:38:46;;;;;;;5.65;5.45;;;;;;;-145.48;100.00;64539.38;6267524;28;20068;-94
2024/01/27 00:41:47;;;;;;;7.30;7.00;;;;;;;-145.48;100.00;64539.38;6253218;28;20574;-94
2024/01/27 00:44:50;;;;;;;7.00;6.70;;;;;;;-145.48;100.00;64539.38;6244280;28;20088;-93
2024/01/27 00:47:52;;;;;;;7.28;6.93;;;;;;;-145.48;100.00;64539.38;6255135;28;20520;-93
2024/01/27 00:50:54;;;;;;;7.05;6.72;;;;;;;-145.48;100.00;64539.38;6255009;28;20419;-94
2024/01/27 00:53:56;;;;;;;6.25;6.05;;;;;;;-145.48;100.00;64539.38;6253807;28;20034;-93
2024/01/27 00:56:58;;;;;;;13.45;8.38;;;;;;;-145.48;100.00;64539.38;6259803;28;20041;-93
2024/01/27 01:00:00;;;;;;;7.22;6.93;;;;;;;-145.48;100.00;64539.38;6252386;28;20547;-94
2024/01/27 01:03:02;;;;;;;7.90;7.25;;;;;;;-145.48;100.00;64539.38;6258895;28;20046;-93
2024/01/27 01:06:04;;;;;;;6.43;6.13;;;;;;;-145.48;100.00;64539.38;6247888;28;20076;-93
2024/01/27 01:09:06;;;;;;;6.70;6.40;;;;;;;-145.48;100.00;64539.38;6255215;28;20049;-94
2024/01/27 01:12:09;;;;;;;6.10;5.90;;;;;;;-145.48;100.00;64539.38;6260107;28;20049;-94
2024/01/27 01:15:12;;;;;;;6.78;6.35;;;;;;;-145.48;100.00;64539.38;6265521;28;20048;-94
2024/01/27 01:18:13;;;;;;;6.13;5.93;;;;;;;-145.48;100.00;64539.38;6260212;28;20166;-93
2024/01/27 01:21:15;;;;;;;6.32;6.03;;;;;;;-145.48;100.00;64539.38;6235413;28;20038;-93
2024/01/27 01:24:17;;;;;;;6.63;6.22;;;;;;;-145.48;100.00;64539.38;6260676;28;20036;-93
2024/01/27 01:27:21;;;;;;;6.57;6.10;;;;;;;-145.48;100.00;64539.38;6248503;28;20084;-93
2024/01/27 01:30:23;;;;;;;8.07;7.47;;;;;;;-145.48;100.00;64539.38;6258900;28;20312;-94
2024/01/27 01:33:25;;;;;;;6.97;6.55;;;;;;;-145.48;100.00;64539.38;6259198;28;20043;-93
2024/01/27 01:36:27;;;;;;;6.45;6.25;;;;;;;-145.48;100.00;64539.38;6252111;28;20060;-93
2024/01/27 01:39:29;;;;;;;6.18;5.97;;;;;;;-145.48;100.00;64539.38;6256958;28;20048;-94
2024/01/27 01:42:32;;;;;;;7.15;6.80;;;;;;;-145.48;100.00;64539.38;6256670;28;20045;-94
2024/01/27 01:45:34;;;;;;;6.38;6.18;;;;;;;-145.48;100.00;64539.38;6245979;28;20037;-94
2024/01/27 01:48:36;;;;;;;6.50;6.30;;;;;;;-145.48;100.00;64539.38;6248678;28;20524;-94
2024/01/27 01:51:39;;;;;;;5.75;5.55;;;;;;;-145.48;100.00;64539.38;6258966;28;20040;-93
2024/01/27 01:54:41;;;;;;;6.10;5.85;;;;;;;-145.48;100.00;64539.38;6246833;28;20041;-94
2024/01/27 01:57:43;;;;;;;7.07;6.78;;;;;;;-145.48;100.00;64539.38;6255436;28;20041;-94
2024/01/27 02:00:46;;;;;;;7.35;6.80;;;;;;;-145.48;100.00;64539.38;6253223;28;20040;-93
2024/01/27 02:03:57;;;;;;;6.93;6.63;;;;;;;-145.48;100.00;64539.38;6256489;28;20029;-93
2024/01/27 02:06:59;;;;;;;6.25;6.05;;;;;;;-145.48;100.00;64539.38;6257246;28;20489;-93
2024/01/27 02:10:02;;;;;;;7.13;6.72;;;;;;;-145.48;100.00;64539.38;6259681;28;20482;-93
2024/01/27 02:13:22;;;;;;;6.28;5.97;;;;;;;-145.48;100.00;64539.38;6254987;28;20440;-94
2024/01/27 02:16:23;;;;;;;7.10;6.80;;;;;;;-145.48;100.00;64539.38;6251396;28;20038;-94
2024/01/27 02:19:25;;;;;;;7.55;7.07;;;;;;;-145.48;100.00;64539.38;6254868;28;20506;-94
2024/01/27 02:22:29;;;;;;;6.55;6.07;;;;;;;-145.48;100.00;64539.38;6252714;28;20041;-93
2024/01/27 02:25:31;;;;;;;7.32;6.93;;;;;;;-145.48;100.00;64539.38;6259615;28;20558;-94
2024/01/27 02:28:35;;;;;;;7.05;6.70;;;;;;;-145.48;100.00;64539.38;6252387;28;20111;-94
2024/01/27 02:31:36;;;;;;;13.85;7.53;;;;;;;-145.48;100.00;64539.38;6256135;28;20040;-94
2024/01/27 02:34:39;;;;;;;6.22;6.00;;;;;;;-145.48;100.00;64539.38;6255304;28;20191;-94
2024/01/27 02:37:41;;;;;;;7.25;6.85;;;;;;;-145.48;100.00;64539.38;6260632;28;20499;-93
2024/01/27 02:40:43;;;;;;;5.68;5.47;;;;;;;-145.48;100.00;64539.38;6256648;28;20037;-94
2024/01/27 02:43:45;;;;;;;6.68;6.15;;;;;;;-145.48;100.00;64539.38;6256027;28;20053;-93
2024/01/27 02:46:47;;;;;;;6.03;5.82;;;;;;;-145.48;100.00;64539.38;6260837;28;20051;-94
2024/01/27 02:49:49;;;;;;;15.80;7.70;;;;;;;-145.48;100.00;64539.38;6257658;28;20061;-93
2024/01/27 02:52:50;;;;;;;5.93;5.72;;;;;;;-145.48;100.00;64539.38;6257993;28;20080;-94
2024/01/27 02:55:52;;;;;;;8.57;8.00;;;;;;;-145.48;100.00;64539.38;6262241;28;20418;-94
2024/01/27 02:58:54;;;;;;;9.05;6.85;;;;;;;-145.48;100.00;64539.38;6257861;28;20052;-94
2024/01/27 03:01:57;;;;;;;12.95;7.57;;;;;;;-145.48;100.00;64539.38;6264586;28;20045;-93
2024/01/27 03:05:00;;;;;;;6.43;6.22;;;;;;;-145.48;100.00;64539.38;6262107;28;20045;-93
2024/01/27 03:08:02;;;;;;;8.35;7.95;;;;;;;-145.48;100.00;64539.38;6253431;28;20049;-94
2024/01/27 03:11:04;;;;;;;8.25;7.85;;;;;;;-145.48;100.00;64539.38;6256840;28;20072;-93
2024/01/27 03:14:07;;;;;;;6.85;6.65;;;;;;;-145.48;100.00;64539.38;6259103;28;20448;-94
2024/01/27 03:17:09;;;;;;;7.05;6.72;;;;;;;-145.48;100.00;64539.38;6254421;28;20128;-94
2024/01/27 03:20:11;;;;;;;7.05;6.75;;;;;;;-145.48;100.00;64539.38;6252631;28;20110;-94
2024/01/27 03:23:13;;;;;;;5.47;5.28;;;;;;;-145.48;100.00;64539.38;6257885;28;20037;-93
2024/01/27 03:26:15;;;;;;;7.60;7.15;;;;;;;-145.48;100.00;64539.38;6245647;28;20049;-94
2024/01/27 03:29:17;;;;;;;6.80;6.50;;;;;;;-145.48;100.00;64539.38;6257294;28;20476;-93
2024/01/27 03:32:19;;;;;;;6.93;6.63;;;;;;;-145.48;100.00;64539.38;6252946;28;20047;-94
2024/01/27 03:35:20;;;;;;;8.10;7.70;;;;;;;-145.48;100.00;64539.38;6251195;28;20041;-94
2024/01/27 03:38:22;;;;;;;7.68;7.18;;;;;;;-145.48;100.00;64539.38;6246453;28;20058;-94
2024/01/27 03:41:24;;;;;;;7.07;6.78;;;;;;;-145.48;100.00;64539.38;6259480;28;20039;-93
2024/01/27 03:44:26;;;;;;;11.23;7.13;;;;;;;-145.48;100.00;64539.38;6252398;28;20506;-94
2024/01/27 03:47:28;;;;;;;6.68;6.38;;;;;;;-145.48;100.00;64539.38;6247704;28;20545;-93
2024/01/27 03:50:30;;;;;;;6.80;6.50;;;;;;;-145.48;100.00;64539.38;6250570;28;20041;-93
2024/01/27 03:53:32;;;;;;;14.80;8.13;;;;;;;-145.48;100.00;64539.38;6259784;28;20506;-94
2024/01/27 03:56:34;;;;;;;6.53;6.32;;;;;;;-145.48;100.00;64539.38;6246578;28;20510;-94
2024/01/27 03:59:36;;;;;;;6.18;5.88;;;;;;;-145.48;100.00;64539.38;6248601;28;20037;-93
2024/01/27 04:02:38;;;;;;;8.35;7.57;;;;;;;-145.48;100.00;64539.38;6252754;28;20480;-94
2024/01/27 04:05:40;;;;;;;6.85;6.50;;;;;;;-145.48;100.00;64539.38;6250362;28;20415;-94
2024/01/27 04:08:43;;;;;;;6.93;6.55;;;;;;;-145.48;100.00;64539.38;6268594;28;20049;-93
2024/01/27 04:11:45;;;;;;;6.88;6.47;;;;;;;-145.48;100.00;64539.38;6250837;28;20055;-93
2024/01/27 04:14:47;;;;;;;9.40;6.82;;;;;;;-145.48;100.00;64539.38;6248168;28;20037;-94
2024/01/27 04:17:49;;;;;;;7.28;6.90;;;;;;;-145.48;100.00;64539.38;6251127;28;20037;-93
2024/01/27 04:20:51;;;;;;;7.45;7.00;;;;;;;-145.48;100.00;64539.38;6256636;28;20142;-94
2024/01/27 04:23:53;;;;;;;16.17;6.65;;;;;;;-145.48;100.00;64539.38;6256198;28;20041;-94
2024/01/27 04:26:54;;;;;;;8.70;6.47;;;;;;;-145.48;100.00;64539.38;6250125;28;20045;-94
2024/01/27 04:29:56;;;;;;;7.57;7.10;;;;;;;-145.48;100.00;64539.38;6251608;28;20231;-94
2024/01/27 04:32:59;;;;;;;7.15;6.85;;;;;;;-145.48;100.00;64539.38;6247889;28;20051;-94
2024/01/27 04:36:01;;;;;;;6.32;6.13;;;;;;;-145.48;100.00;64539.38;6261844;28;20450;-94
2024/01/27 04:39:04;;;;;;;6.90;6.32;;;;;;;-145.48;100.00;64539.38;6262236;28;20380;-94
2024/01/27 04:42:06;;;;;;;10.48;7.07;;;;;;;-145.48;100.00;64539.38;6260412;28;20044;-94
2024/01/27 04:45:08;;;;;;;6.57;6.28;;;;;;;-145.48;100.00;64539.38;6249280;28;20035;-94
2024/01/27 04:48:10;;;;;;;6.72;6.53;;;;;;;-145.48;100.00;64539.38;6257964;28;20037;-94
2024/01/27 04:51:12;;;;;;;6.35;6.15;;;;;;;-145.48;100.00;64539.38;6255905;28;20049;-94
2024/01/27 04:54:14;;;;;;;6.60;6.30;;;;;;;-145.48;100.00;64539.38;6259330;28;20113;-94
2024/01/27 04:57:16;;;;;;;6.78;6.47;;;;;;;-145.48;100.00;64539.38;6258510;28;20041;-94
2024/01/27 05:00:18;;;;;;;13.07;6.45;;;;;;;-145.48;100.00;64539.38;6253901;28;20045;-94
2024/01/27 05:03:20;;;;;;;6.05;5.80;;;;;;;-145.48;100.00;64539.38;6257965;28;20119;-94
2024/01/27 05:06:22;;;;;;;5.85;5.65;;;;;;;-145.48;100.00;64539.38;6246481;28;20356;-95
2024/01/27 05:09:25;;;;;;;6.30;6.00;;;;;;;-145.48;100.00;64539.38;6255023;28;20117;-93
2024/01/27 05:12:27;;;;;;;5.93;5.72;;;;;;;-145.48;100.00;64539.38;6250833;28;20499;-94
2024/01/27 05:15:28;;;;;;;12.27;6.45;;;;;;;-145.48;100.00;64539.38;6261757;28;20703;-94
2024/01/27 05:18:31;;;;;;;7.50;7.20;;;;;;;-145.48;100.00;64539.38;6256058;28;20406;-94
2024/01/27 05:21:33;;;;;;;6.50;6.20;;;;;;;-145.48;100.00;64539.38;6250037;28;20405;-94
2024/01/27 05:24:35;;;;;;;7.95;7.32;;;;;;;-145.48;100.00;64539.38;6262021;28;20044;-94
2024/01/27 05:27:40;;;;;;;7.07;6.75;;;;;;;-145.48;100.00;64539.38;6260434;28;20078;-94
2024/01/27 05:30:43;;;;;;;7.38;6.72;;;;;;;-145.48;100.00;64539.38;6258791;28;20060;-94
2024/01/27 05:33:45;;;;;;;7.18;6.70;;;;;;;-145.48;100.00;64539.38;6254143;28;21464;-94
2024/01/27 05:36:47;;;;;;;6.85;6.60;;;;;;;-145.48;100.00;64539.38;6254798;28;20040;-94
2024/01/27 05:39:49;;;;;;;6.40;6.13;;;;;;;-145.48;100.00;64539.38;6248241;28;20483;-93
2024/01/27 05:42:51;;;;;;;5.55;5.35;;;;;;;-145.48;100.00;64539.38;6257647;28;20415;-94
2024/01/27 05:45:53;;;;;;;13.07;7.03;;;;;;;-145.48;100.00;64539.38;6258087;28;20041;-94
2024/01/27 05:49:00;;;;;;;5.90;5.70;;;;;;;-145.48;100.00;64539.38;6264830;28;20573;-94
2024/01/27 05:52:03;;;;;;;7.45;6.85;;;;;;;-145.48;100.00;64539.38;6255344;28;20045;-94
2024/01/27 05:55:06;;;;;;;7.28;6.88;;;;;;;-145.48;100.00;64539.38;6267069;28;20128;-94
2024/01/27 05:58:08;;;;;;;6.47;6.18;;;;;;;-145.48;100.00;64539.38;6259056;28;20148;-94
2024/01/27 06:01:10;;;;;;;5.97;5.78;;;;;;;-145.48;100.00;64539.38;6261616;28;20037;-94
2024/01/27 06:04:12;;;;;;;6.00;5.80;;;;;;;-145.48;100.00;64539.38;6264230;28;20044;-93
2024/01/27 06:07:14;;;;;;;8.75;7.05;;;;;;;-145.48;100.00;64539.38;6261025;28;20044;-94
2024/01/27 06:10:18;;;;;;;6.35;6.10;;;;;;;-145.48;100.00;64539.38;6263064;28;20044;-93
2024/01/27 06:13:19;;;;;;;9.75;6.95;;;;;;;-145.48;100.00;64539.38;6255250;28;20403;-93
2024/01/27 06:16:23;;;;;;;7.22;6.68;;;;;;;-145.48;100.00;64539.38;6258479;28;20045;-94
2024/01/27 06:19:24;;;;;;;20.73;7.45;;;;;;;-145.48;100.00;64539.38;6261670;28;20065;-93
2024/01/27 06:22:26;;;;;;;6.75;6.45;;;;;;;-145.48;100.00;64539.38;6264378;28;20256;-93
2024/01/27 06:25:28;;;;;;;19.23;18.17;;;;;;;-145.48;100.00;64539.38;6251002;28;20077;-94
2024/01/27 06:28:30;;;;;;;7.40;6.90;;;;;;;-145.48;100.00;64539.38;6260089;28;20033;-94
2024/01/27 06:31:32;;;;;;;6.20;5.93;;;;;;;-145.48;100.00;64539.38;6253078;28;20498;-94
2024/01/27 06:34:34;;;;;;;6.85;6.35;;;;;;;-145.48;100.00;64539.38;6258977;28;20049;-94
2024/01/27 06:37:36;;;;;;;6.95;6.65;;;;;;;-145.48;100.00;64539.38;6257775;28;20048;-93
2024/01/27 06:40:38;;;;;;;6.97;6.68;;;;;;;-145.48;100.00;64539.38;6254003;28;20037;-93
2024/01/27 06:43:39;;;;;;;8.18;7.40;;;;;;;-145.48;100.00;64539.38;6256498;28;20132;-93
2024/01/27 06:46:41;;;;;;;6.43;6.22;;;;;;;-145.48;100.00;64539.38;6251388;28;20045;-93
2024/01/27 06:49:43;;;;;;;6.45;6.25;;;;;;;-145.48;100.00;64539.38;6263168;28;20037;-94
2024/01/27 06:52:45;;;;;;;7.78;7.38;;;;;;;-145.48;100.00;64539.38;6263721;28;20044;-93
2024/01/27 06:55:47;;;;;;;7.97;7.57;;;;;;;-145.48;100.00;64539.38;6261110;28;20335;-93
2024/01/27 06:58:50;;;;;;;8.00;7.45;;;;;;;-145.48;100.00;64539.38;6266371;28;20053;-93
2024/01/27 07:01:52;;;;;;;7.18;6.68;;;;;;;-145.48;100.00;64539.38;6250946;28;20045;-93
2024/01/27 07:04:55;;;;;;;6.43;6.22;;;;;;;-145.48;100.00;64539.38;6256984;28;20488;-93
2024/01/27 07:07:58;;;;;;;7.53;7.22;;;;;;;-145.48;100.00;64539.38;6260062;28;20075;-94
2024/01/27 07:10:59;;;;;;;6.97;6.68;;;;;;;-145.48;100.00;64539.38;6261143;28;20037;-93
2024/01/27 07:14:02;;;;;;;7.93;7.43;;;;;;;-145.48;100.00;64539.38;6259630;28;20055;-94
2024/01/27 07:17:05;;;;;;;6.53;6.32;;;;;;;-145.48;100.00;64539.38;6262083;28;20528;-93
2024/01/27 07:20:08;;;;;;;7.15;6.63;;;;;;;-145.48;100.00;64539.38;6257704;28;20161;-94
2024/01/27 07:23:10;;;;;;;5.60;5.40;;;;;;;-145.48;100.00;64539.38;6265991;28;20124;-94
2024/01/27 07:26:12;;;;;;;6.60;6.40;;;;;;;-145.48;100.00;64539.38;6259116;28;20041;-93
2024/01/27 07:29:14;;;;;;;7.80;7.15;;;;;;;-145.48;100.00;64539.38;6259023;28;20045;-93
2024/01/27 07:32:16;;;;;;;13.80;13.13;;;;;;;-145.48;100.00;64539.38;6252708;28;20267;-93
2024/01/27 07:35:18;;;;;;;7.07;6.68;;;;;;;-145.48;100.00;64539.38;6260084;28;20583;-93
2024/01/27 07:38:20;;;;;;;7.53;6.00;;;;;;;-145.48;100.00;64539.38;6256446;28;20454;-93
2024/01/27 07:41:22;;;;;;;6.72;6.43;;;;;;;-145.48;100.00;64539.38;6258993;28;20120;-92
2024/01/27 07:44:24;;;;;;;6.25;6.00;;;;;;;-145.48;100.00;64539.38;6253552;28;20036;-93
2024/01/27 07:47:26;;;;;;;10.57;6.32;;;;;;;-145.48;100.00;64539.38;6262188;28;20032;-92
2024/01/27 07:50:28;;;;;;;7.43;7.07;;;;;;;-145.48;100.00;64539.38;6256088;28;20128;-93
2024/01/27 07:53:30;;;;;;;5.72;5.53;;;;;;;-145.48;100.00;64539.38;6255903;28;20736;-92
2024/01/27 07:56:32;;;;;;;7.05;6.75;;;;;;;-145.48;100.00;64539.38;6253234;28;20530;-93
2024/01/27 07:59:34;;;;;;;7.32;7.03;;;;;;;-145.48;100.00;64539.38;6259248;28;20048;-93
2024/01/27 08:02:36;;;;;;;6.82;6.53;;;;;;;-145.48;100.00;64539.38;6250867;28;20516;-92
2024/01/27 08:05:38;;;;;;;7.78;7.18;;;;;;;-145.48;100.00;64539.38;6260084;28;20116;-93
2024/01/27 08:08:41;;;;;;;6.18;5.90;;;;;;;-145.48;100.00;64539.38;6251803;28;20053;-93
2024/01/27 08:11:43;;;;;;;6.18;5.97;;;;;;;-145.48;100.00;64539.38;6243519;28;20095;-93
2024/01/27 08:14:45;;;;;;;7.35;6.80;;;;;;;-145.48;100.00;64539.38;6254299;28;20056;-92
2024/01/27 08:17:47;;;;;;;5.95;5.75;;;;;;;-145.48;100.00;64539.38;6252886;28;20068;-92
2024/01/27 08:20:49;;;;;;;7.63;7.15;;;;;;;-145.48;100.00;64539.38;6258847;28;20510;-92
2024/01/27 08:23:51;;;;;;;6.25;6.05;;;;;;;-145.48;100.00;64539.38;6259609;28;20056;-92
2024/01/27 08:26:53;;;;;;;10.90;10.20;;;;;;;-145.48;100.00;64539.38;6253350;28;20053;-93
2024/01/27 08:29:54;;;;;;;6.90;6.60;;;;;;;-145.48;100.00;64539.38;6262147;28;20049;-93
2024/01/27 08:32:59;;;;;;;6.40;6.07;;;;;;;-145.48;100.00;64539.38;6256698;28;20064;-93
2024/01/27 08:36:01;;;;;;;6.63;6.38;;;;;;;-145.48;100.00;64539.38;6255124;28;20507;-93
2024/01/27 08:39:07;;;;;;;6.45;6.15;;;;;;;-145.48;100.00;64539.38;6259175;28;20060;-92
2024/01/27 08:42:09;;;;;;;13.05;7.28;;;;;;;-145.48;100.00;64539.38;6259442;28;20041;-92
2024/01/27 08:45:11;;;;;;;9.02;5.90;;;;;;;-145.48;100.00;64539.38;6260585;28;20033;-92
2024/01/27 08:48:13;;;;;;;6.32;6.00;;;;;;;-145.48;100.00;64539.38;6260514;28;20083;-92
2024/01/27 08:51:16;;;;;;;8.40;7.78;;;;;;;-145.48;100.00;64539.38;6249519;28;20075;-91
2024/01/27 08:54:19;;;;;;;7.75;7.13;;;;;;;-145.48;100.00;64539.38;6253011;28;20047;-90
2024/01/27 08:57:21;;;;;;;5.95;5.75;;;;;;;-145.48;100.00;64539.38;6252921;28;20064;-90
2024/01/27 09:00:23;;;;;;;6.28;6.05;;;;;;;-145.48;100.00;64539.38;6250941;28;20045;-89
2024/01/27 09:03:24;;;;;;;6.07;5.88;;;;;;;-145.48;100.00;64539.38;6254238;28;20051;-89
2024/01/27 09:06:26;;;;;;;6.80;6.40;;;;;;;-145.48;100.00;64539.38;6252853;28;20134;-89
2024/01/27 09:09:33;;;;;;;6.88;6.50;;;;;;;-145.48;100.00;64539.38;6257458;28;20128;-89
2024/01/27 09:12:35;;;;;;;6.05;5.82;;;;;;;-145.48;100.00;64539.38;6259856;28;20048;-90
2024/01/27 09:15:37;;;;;;;7.05;6.75;;;;;;;-145.48;100.00;64539.38;6260637;28;20072;-90
2024/01/27 09:18:39;;;;;;;5.78;5.57;;;;;;;-145.48;100.00;64539.38;6258116;28;20415;-89
2024/01/27 09:21:41;;;;;;;6.18;5.97;;;;;;;-145.48;100.00;64539.38;6257092;28;20049;-89
2024/01/27 09:24:43;;;;;;;7.63;7.15;;;;;;;-145.48;100.00;64539.38;6263834;28;20501;-89
2024/01/27 09:27:45;;;;;;;7.45;7.13;;;;;;;-145.48;100.00;64539.38;6264271;28;20038;-89
2024/01/27 09:30:47;;;;;;;7.32;6.93;;;;;;;-145.48;100.00;64539.38;6258520;28;20055;-89
2024/01/27 09:33:51;;;;;;;6.60;6.30;;;;;;;-145.48;100.00;64539.38;6265504;28;20052;-89
2024/01/27 09:36:53;;;;;;;10.52;7.25;;;;;;;-145.48;100.00;64539.38;6261887;28;20045;-89
2024/01/27 09:39:55;;;;;;;6.65;6.45;;;;;;;-145.48;100.00;64539.38;6252722;28;20420;-90
2024/01/27 09:42:59;;;;;;;6.82;6.53;;;;;;;-145.48;100.00;64539.38;6264501;28;20048;-89
2024/01/27 09:46:02;;;;;;;7.45;7.05;;;;;;;-145.48;100.00;64539.38;6237428;28;20065;-90
2024/01/27 09:49:05;;;;;;;6.95;6.63;;;;;;;-145.48;100.00;64539.38;6255034;28;20090;-89
2024/01/27 09:52:08;;;;;;;12.38;11.77;;;;;;;-145.48;100.00;64539.38;6255381;28;20052;-89
2024/01/27 09:55:11;;;;;;;6.75;6.35;;;;;;;-145.48;100.00;64539.38;6271337;28;20037;-90
2024/01/27 09:58:15;;;;;;;6.80;6.50;;;;;;;-145.48;100.00;64539.38;6254487;28;20475;-90
2024/01/27 10:01:18;;;;;;;6.97;6.68;;;;;;;-145.48;100.00;64539.38;6248891;28;21030;-89
2024/01/27 10:04:22;;;;;;;7.07;6.78;;;;;;;-145.48;100.00;64539.38;6258182;28;20041;-89
2024/01/27 10:07:24;;;;;;;7.85;6.93;;;;;;;-145.48;100.00;64539.38;6257472;28;20053;-90
2024/01/27 10:10:26;;;;;;;6.60;6.38;;;;;;;-145.48;100.00;64539.38;6264488;28;20045;-90
2024/01/27 10:13:28;;;;;;;10.10;8.30;;;;;;;-145.48;100.00;64539.38;6259761;28;20043;-90
2024/01/27 10:16:40;;;;;;;8.27;6.90;;;;;;;-145.48;100.00;64539.38;6254908;28;20037;-90
2024/01/27 10:19:42;;;;;;;10.90;8.32;;;;;;;-145.48;100.00;64539.38;6259892;28;20076;-90
2024/01/27 10:22:46;;;;;;;7.15;6.78;;;;;;;-145.48;100.00;64539.38;6254413;28;20507;-90
2024/01/27 10:25:49;;;;;;;6.22;6.03;;;;;;;-145.48;100.00;64539.38;6257964;28;20040;-90
2024/01/27 10:28:57;;;;;;;7.65;6.85;;;;;;;-145.48;100.00;64539.38;6264549;28;20047;-89
2024/01/27 10:32:10;;;;;;;8.93;8.52;;;;;;;-145.48;100.00;64539.38;6249107;28;20052;-90
2024/01/27 10:35:12;;;;;;;12.40;11.80;;;;;;;-145.48;100.00;64539.38;6261448;28;20045;-90
2024/01/27 10:38:14;;;;;;;6.82;6.43;;;;;;;-145.48;100.00;64539.38;6251359;28;20179;-90
2024/01/27 10:41:23;;;;;;;17.83;6.72;;;;;;;-145.48;100.00;64539.38;6253747;28;20102;-90
2024/01/27 10:44:29;;;;;;;6.65;6.35;;;;;;;-145.48;100.00;64539.38;6266396;28;20123;-90
2024/01/27 10:47:32;;;;;;;6.22;5.97;;;;;;;-145.48;100.00;64539.38;6236818;28;20510;-90
2024/01/27 10:50:36;;;;;;;22.83;7.68;;;;;;;-145.48;100.00;64539.38;6273326;28;20037;-90
2024/01/27 10:53:44;;;;;;;5.95;5.75;;;;;;;-145.48;100.00;64539.38;6252551;28;20041;-90
2024/01/27 10:56:47;;;;;;;6.30;6.05;;;;;;;-145.48;100.00;64539.38;6260421;28;20133;-89
2024/01/27 10:59:50;;;;;;;6.88;6.57;;;;;;;-145.48;100.00;64539.38;6252399;28;20538;-90
2024/01/27 11:02:57;;;;;;;6.45;6.18;;;;;;;-145.48;100.00;64539.38;6259638;28;20048;-90
2024/01/27 11:06:00;;;;;;;6.43;6.07;;;;;;;-145.48;100.00;64539.38;6266946;28;20079;-89
2024/01/27 11:09:03;;;;;;;7.03;6.63;;;;;;;-145.48;100.00;64539.38;6255254;28;20064;-90
2024/01/27 11:12:06;;;;;;;7.50;7.00;;;;;;;-145.48;100.00;64539.38;6250959;28;20048;-90
2024/01/27 11:15:08;;;;;;;7.43;7.13;;;;;;;-145.48;100.00;64539.38;6260594;28;20072;-87
2024/01/27 11:18:10;;;;;;;5.97;5.78;;;;;;;-145.48;100.00;64539.38;6258679;28;20487;-90
2024/01/27 11:21:17;;;;;;;6.50;6.20;;;;;;;-145.48;100.00;64539.38;6257067;28;20505;-90
2024/01/27 11:24:23;;;;;;;6.70;6.20;;;;;;;-145.48;100.00;64539.38;6253932;28;20033;-90
2024/01/27 11:27:33;;;;;;;7.50;6.90;;;;;;;-145.48;100.00;64539.38;6247575;28;20049;-90
2024/01/27 11:30:39;;;;;;;9.55;7.70;;;;;;;-145.48;100.00;64539.38;6254371;28;20507;-91
2024/01/27 11:33:44;;;;;;;6.30;6.10;;;;;;;-145.48;100.00;64539.38;6257001;28;20049;-91
2024/01/27 11:36:47;;;;;;;7.07;6.82;;;;;;;-145.48;100.00;64539.38;6253963;28;20072;-91
2024/01/27 11:39:48;;;;;;;7.22;6.90;;;;;;;-145.48;100.00;64539.38;6251549;28;20037;-90
2024/01/27 11:42:59;;;;;;;6.95;6.65;;;;;;;-145.48;100.00;64539.38;6251110;28;20088;-90
2024/01/27 11:46:01;;;;;;;8.10;7.60;;;;;;;-145.48;100.00;64539.38;6256821;28;20050;-90
2024/01/27 11:49:04;;;;;;;7.13;6.82;;;;;;;-145.48;100.00;64539.38;6261467;28;20067;-90
2024/01/27 11:52:07;;;;;;;6.90;6.35;;;;;;;-145.48;100.00;64539.38;6236004;28;20155;-90
2024/01/27 11:55:09;;;;;;;6.20;5.93;;;;;;;-145.48;100.00;64539.38;6253575;28;20065;-90
2024/01/27 11:58:10;;;;;;;6.50;6.30;;;;;;;-145.48;100.00;64539.38;6243251;28;20056;-90
2024/01/27 12:01:13;;;;;;;6.63;6.32;;;;;;;-145.48;100.00;64539.38;6253983;28;20037;-90
2024/01/27 12:04:15;;;;;;;6.13;5.93;;;;;;;-145.48;100.00;64539.38;6259125;28;20079;-91
2024/01/27 12:07:21;;;;;;;8.60;7.82;;;;;;;-145.48;100.00;64539.38;6254327;28;20037;-91
2024/01/27 12:10:23;;;;;;;8.48;6.90;;;;;;;-145.48;100.00;64539.38;6255943;28;20041;-91
2024/01/27 12:13:26;;;;;;;5.70;5.50;;;;;;;-145.48;100.00;64539.38;6254771;28;20526;-91
2024/01/27 12:16:28;;;;;;;6.10;5.90;;;;;;;-145.48;100.00;64539.38;6259674;28;20504;-91
2024/01/27 12:19:30;;;;;;;10.75;6.18;;;;;;;-145.48;100.00;64539.38;6259332;28;20052;-92
2024/01/27 12:22:33;;;;;;;7.47;6.85;;;;;;;-145.48;100.00;64539.38;6255985;28;20052;-92
2024/01/27 12:25:35;;;;;;;7.70;7.32;;;;;;;-145.48;100.00;64539.38;6257443;28;20044;-92
2024/01/27 12:28:37;;;;;;;7.45;7.05;;;;;;;-145.48;100.00;64539.38;6253385;28;20626;-92
2024/01/27 12:31:39;;;;;;;6.53;6.22;;;;;;;-145.48;100.00;64539.38;6250242;28;20071;-92
2024/01/27 12:34:42;;;;;;;7.82;7.40;;;;;;;-145.48;100.00;64539.38;6254860;28;20038;-93
2024/01/27 12:37:44;;;;;;;7.35;7.05;;;;;;;-145.48;100.00;64539.38;6250170;28;20045;-93
2024/01/27 12:40:46;;;;;;;6.82;6.53;;;;;;;-145.48;100.00;64539.38;6267640;28;20479;-93
2024/01/27 12:43:49;;;;;;;6.97;6.68;;;;;;;-145.48;100.00;64539.38;6258401;28;20049;-93
2024/01/27 12:46:51;;;;;;;8.00;7.28;;;;;;;-145.48;100.00;64539.38;6245247;28;20129;-93
2024/01/27 12:49:54;;;;;;;6.03;5.82;;;;;;;-145.48;100.00;64539.38;6258352;28;20041;-93
2024/01/27 12:52:57;;;;;;;6.55;6.15;;;;;;;-145.48;100.00;64539.38;6243094;28;20056;-93
2024/01/27 12:55:59;;;;;;;6.65;6.35;;;;;;;-145.48;100.00;64539.38;6254515;28;20036;-93
2024/01/27 12:59:01;;;;;;;7.90;7.32;;;;;;;-145.48;100.00;64539.38;6254581;28;20125;-93
2024/01/27 13:02:03;;;;;;;5.97;5.78;;;;;;;-145.48;100.00;64539.38;6256580;28;20045;-93
2024/01/27 13:05:05;;;;;;;7.35;7.05;;;;;;;-145.48;100.00;64539.38;6264779;28;20043;-93
2024/01/27 13:08:08;;;;;;;8.73;7.75;;;;;;;-145.48;100.00;64539.38;6247180;28;20037;-92
2024/01/27 13:11:12;;;;;;;6.18;5.88;;;;;;;-145.48;100.00;64539.38;6232647;28;20078;-93
2024/01/27 13:14:16;;;;;;;6.68;6.28;;;;;;;-145.48;100.00;64539.38;6254297;28;20419;-94
2024/01/27 13:17:19;;;;;;;6.32;6.03;;;;;;;-145.48;100.00;64539.38;6249425;28;20643;-91
2024/01/27 13:20:21;;;;;;;5.43;5.18;;;;;;;-145.48;100.00;64539.38;6252945;28;20033;-91
2024/01/27 13:23:22;;;;;;;5.70;5.50;;;;;;;-145.48;100.00;64539.38;6248057;28;20509;-92
2024/01/27 13:26:24;;;;;;;6.00;5.68;;;;;;;-145.48;100.00;64539.38;6257993;28;20045;-92
2024/01/27 13:29:28;;;;;;;6.10;5.82;;;;;;;-145.48;100.00;64539.38;6255285;28;20079;-91
2024/01/27 13:32:30;;;;;;;6.32;5.32;;;;;;;-145.48;100.00;64539.38;6260395;28;20045;-88
2024/01/27 13:35:33;;;;;;;6.65;6.35;;;;;;;-145.48;100.00;64539.38;6257829;28;20472;-93
2024/01/27 13:38:35;;;;;;;6.18;5.88;;;;;;;-145.48;100.00;64539.38;6249702;28;20045;-91
2024/01/27 13:41:37;;;;;;;6.22;6.03;;;;;;;-145.48;100.00;64539.38;6250309;28;20037;-92
2024/01/27 13:44:39;;;;;;;6.25;5.78;;;;;;;-145.48;100.00;64539.38;6256325;28;20040;-91
2024/01/27 13:47:41;;;;;;;6.00;5.70;;;;;;;-145.48;100.00;64539.38;6249596;28;20491;-91
2024/01/27 13:50:44;;;;;;;14.68;5.32;;;;;;;-145.48;100.00;64539.38;6257332;28;20167;-91